Time;durP1;ratioP1;P1;durP2;ratioP2;P2;SDS_P1;SDS_P2;PMS_P1;PMS_P2;Temp;Humidity;BMP_temperature;BMP_pressure;BME280_temperature;BME280_humidity;BME280_pressure;Samples;Min_cycle;Max_cycle;Signal;HPM_P1;HPM_P2
2021/08/29 00:00:24;;;;;;;;;;;;;;;14.56;96.30;99939.95;1738829;81;20133;-84
2021/08/29 00:02:49;;;;;;;;;;;;;;;14.57;96.38;99937.59;1739878;81;21042;-86
2021/08/29 00:05:15;;;;;;;;;;;;;;;14.56;95.98;99933.30;1743582;80;20170;-85
2021/08/29 00:07:42;;;;;;;;;;;;;;;14.45;96.35;99939.08;1742918;81;20200;-84
2021/08/29 00:10:09;;;;;;;;;;;;;;;14.51;96.57;99939.17;1740546;81;20207;-85
2021/08/29 00:12:34;;;;;;;;;;;;;;;14.60;95.95;99935.91;1718104;82;20163;-85
2021/08/29 00:15:02;;;;;;;;;;;;;;;14.62;95.55;99939.23;1743085;81;21155;-85
2021/08/29 00:17:29;;;;;;;;;;;;;;;14.62;95.21;99933.91;1742709;81;20183;-85
2021/08/29 00:19:55;;;;;;;;;;;;;;;14.53;95.33;99935.00;1737654;81;20201;-84
2021/08/29 00:22:21;;;;;;;;;;;;;;;14.49;95.56;99937.70;1737658;81;20238;-85
2021/08/29 00:24:47;;;;;;;;;;;;;;;14.54;95.59;99928.66;1720095;80;20223;-84
2021/08/29 00:27:12;;;;;;;;;;;;;;;14.54;95.56;99932.16;1740864;81;21141;-84
2021/08/29 00:29:38;;;;;;;;;;;;;;;14.49;95.57;99933.72;1740493;81;20829;-84
2021/08/29 00:32:06;;;;;;;;;;;;;;;14.47;95.55;99931.77;1758276;79;20133;-83
2021/08/29 00:34:32;;;;;;;;;;;;;;;14.50;95.43;99932.72;1765913;79;20172;-84
2021/08/29 00:36:57;;;;;;;;;;;;;;;14.46;95.42;99928.78;1765039;79;20204;-84
2021/08/29 00:39:23;;;;;;;;;;;;;;;14.40;95.54;99926.88;1769748;79;21095;-84
2021/08/29 00:41:49;;;;;;;;;;;;;;;14.26;95.94;99932.05;1769554;80;20683;-84
2021/08/29 00:44:15;;;;;;;;;;;;;;;14.21;96.57;99934.41;1761538;79;20347;-85
2021/08/29 00:46:41;;;;;;;;;;;;;;;14.13;96.86;99931.86;1737422;80;21362;-86
2021/08/29 00:49:09;;;;;;;;;;;;;;;14.19;96.97;99932.45;1737351;80;20235;-83
2021/08/29 00:51:34;;;;;;;;;;;;;;;14.24;96.54;99930.05;1734134;80;21089;-84
2021/08/29 00:54:00;;;;;;;;;;;;;;;14.28;96.45;99932.67;1760713;80;20397;-85
2021/08/29 00:56:27;;;;;;;;;;;;;;;14.30;96.22;99931.16;1768001;80;20157;-82
2021/08/29 00:58:55;;;;;;;;;;;;;;;14.29;96.07;99940.97;1766042;80;20159;-80
2021/08/29 01:01:23;;;;;;;;;;;;;;;14.33;95.84;99938.23;1766903;80;20181;-80
2021/08/29 01:03:49;;;;;;;;;;;;;;;14.36;95.68;99945.02;1768546;80;21098;-81
2021/08/29 01:06:22;;;;;;;;;;;;;;;14.38;95.36;99943.51;1760380;79;20076;-81
2021/08/29 01:08:49;;;;;;;;;;;;;;;14.37;95.02;99941.34;1764733;79;20113;-82
2021/08/29 01:11:18;;;;;;;;;;;;;;;14.32;95.01;99945.88;1769166;79;20200;-82
2021/08/29 01:13:47;;;;;;;;;;;;;;;14.33;95.03;99945.39;1767412;79;20204;-81
2021/08/29 01:16:19;;;;;;;;;;;;;;;14.25;94.93;99943.67;1758139;80;20901;-80
2021/08/29 01:18:50;;;;;;;;;;;;;;;14.15;95.61;99944.45;1786195;78;20289;-81
2021/08/29 01:21:25;;;;;;;;;;;;;;;14.12;95.51;99946.14;1749603;81;20308;-82
2021/08/29 01:23:56;;;;;;;;;;;;;;;14.10;95.62;99937.55;1756367;80;20542;-81
2021/08/29 01:26:42;;;;;;;;;;;;;;;14.19;95.34;99945.22;1709336;81;20127;-83
2021/08/29 01:29:08;;;;;;;;;;;;;;;14.22;95.21;99948.02;1752660;80;21882;-81
2021/08/29 01:31:36;;;;;;;;;;;;;;;14.23;94.62;99953.66;1731085;81;20136;-83
2021/08/29 01:34:07;;;;;;;;;;;;;;;14.20;94.53;99948.72;1749475;81;20181;-81
2021/08/29 01:36:31;;;;;;;;;;;;;;;14.22;94.36;99949.34;1745887;80;20561;-80
2021/08/29 01:38:58;;;;;;;;;;;;;;;14.24;94.33;99947.32;1752291;80;20153;-82
2021/08/29 01:41:24;;;;;;;;;;;;;;;14.28;93.99;99943.81;1749852;81;21075;-78
2021/08/29 01:43:49;;;;;;;;;;;;;;;14.26;93.50;99945.33;1720944;80;20331;-81
2021/08/29 01:46:18;;;;;;;;;;;;;;;14.24;93.37;99947.32;1771761;79;20153;-80
2021/08/29 01:48:43;;;;;;;;;;;;;;;14.24;93.29;99945.99;1774264;79;20191;-80
2021/08/29 01:51:11;;;;;;;;;;;;;;;14.30;92.92;99943.92;1775184;80;20135;-82
2021/08/29 01:53:38;;;;;;;;;;;;;;;14.29;92.79;99944.95;1776454;80;21169;-82
2021/08/29 01:56:05;;;;;;;;;;;;;;;14.28;92.70;99947.80;1775665;79;20447;-82
2021/08/29 01:58:30;;;;;;;;;;;;;;;14.09;93.39;99942.52;1774894;79;20506;-82
2021/08/29 02:00:57;;;;;;;;;;;;;;;14.13;93.63;99942.48;1781164;79;20159;-82
2021/08/29 02:03:24;;;;;;;;;;;;;;;14.12;93.23;99940.83;1775726;80;20188;-82
2021/08/29 02:05:55;;;;;;;;;;;;;;;14.13;93.07;99934.52;1751212;80;21184;-82
2021/08/29 02:08:20;;;;;;;;;;;;;;;14.17;92.85;99936.62;1759103;79;20213;-82
2021/08/29 02:10:50;;;;;;;;;;;;;;;14.21;92.66;99937.06;1757376;80;20162;-82
2021/08/29 02:13:16;;;;;;;;;;;;;;;14.23;92.25;99937.72;1726606;80;21454;-82
2021/08/29 02:15:45;;;;;;;;;;;;;;;14.24;92.27;99939.35;1729358;80;20183;-82
2021/08/29 02:18:11;;;;;;;;;;;;;;;14.27;92.49;99935.00;1763960;79;21967;-82
2021/08/29 02:20:37;;;;;;;;;;;;;;;14.29;92.19;99939.64;1764496;80;20122;-82
2021/08/29 02:23:03;;;;;;;;;;;;;;;14.32;92.17;99934.44;1763883;80;20131;-82
2021/08/29 02:25:28;;;;;;;;;;;;;;;14.27;92.11;99930.20;1761504;80;20154;-82
2021/08/29 02:27:54;;;;;;;;;;;;;;;14.27;92.29;99931.02;1759504;79;21393;-82
2021/08/29 02:30:19;;;;;;;;;;;;;;;14.19;92.59;99928.47;1759930;79;21870;-81
2021/08/29 02:32:45;;;;;;;;;;;;;;;14.21;92.28;99925.11;1757952;80;20154;-82
2021/08/29 02:35:11;;;;;;;;;;;;;;;14.16;92.52;99920.36;1725635;80;20142;-82
2021/08/29 02:37:36;;;;;;;;;;;;;;;14.15;92.40;99917.41;1757203;80;20304;-82
2021/08/29 02:40:03;;;;;;;;;;;;;;;14.11;92.86;99916.11;1756509;80;20212;-82
2021/08/29 02:42:29;;;;;;;;;;;;;;;14.05;93.16;99918.70;1758414;80;20982;-82
2021/08/29 02:44:55;;;;;;;;;;;;;;;14.01;93.14;99915.56;1758243;80;20509;-84
2021/08/29 02:47:20;;;;;;;;;;;;;;;13.93;93.36;99919.14;1758677;80;20149;-82
2021/08/29 02:49:47;;;;;;;;;;;;;;;13.97;93.47;99920.43;1757083;80;20104;-81
2021/08/29 02:52:12;;;;;;;;;;;;;;;13.98;93.41;99922.09;1757516;80;20297;-84
2021/08/29 02:54:40;;;;;;;;;;;;;;;13.83;93.63;99923.92;1757743;80;21599;-80
2021/08/29 02:57:06;;;;;;;;;;;;;;;13.76;94.21;99922.99;1733380;80;20226;-82
2021/08/29 02:59:32;;;;;;;;;;;;;;;13.68;95.00;99928.39;1755488;80;20148;-82
2021/08/29 03:01:58;;;;;;;;;;;;;;;13.58;95.40;99920.20;1729754;81;20208;-82
2021/08/29 03:04:24;;;;;;;;;;;;;;;13.49;95.85;99919.95;1733204;81;20230;-84
2021/08/29 03:06:50;;;;;;;;;;;;;;;13.42;96.36;99908.41;1731196;81;21088;-82
2021/08/29 03:09:16;;;;;;;;;;;;;;;13.40;96.33;99902.47;1710396;83;20171;-82
2021/08/29 03:11:41;;;;;;;;;;;;;;;13.37;96.67;99897.52;1734391;81;20185;-82
2021/08/29 03:14:07;;;;;;;;;;;;;;;13.36;96.79;99898.52;1737317;81;20117;-83
2021/08/29 03:16:32;;;;;;;;;;;;;;;13.37;97.10;99894.36;1739899;81;20468;-80
2021/08/29 03:19:01;;;;;;;;;;;;;;;13.39;97.05;99899.48;1733079;81;22832;-85
2021/08/29 03:21:27;;;;;;;;;;;;;;;13.42;96.87;99900.45;1732583;81;20231;-85
2021/08/29 03:23:54;;;;;;;;;;;;;;;13.43;96.93;99895.48;1736827;81;20199;-85
2021/08/29 03:26:19;;;;;;;;;;;;;;;13.47;96.73;99894.13;1736302;81;20172;-85
2021/08/29 03:28:45;;;;;;;;;;;;;;;13.45;96.67;99889.48;1735739;81;20114;-82
2021/08/29 03:31:12;;;;;;;;;;;;;;;13.50;96.15;99896.89;1743194;81;21103;-82
2021/08/29 03:33:39;;;;;;;;;;;;;;;13.44;96.04;99894.48;1781552;79;20437;-83
2021/08/29 03:36:05;;;;;;;;;;;;;;;13.36;96.39;99897.19;1757478;81;20180;-82
2021/08/29 03:38:32;;;;;;;;;;;;;;;13.29;96.77;99899.20;1758373;80;20123;-83
2021/08/29 03:40:57;;;;;;;;;;;;;;;13.29;97.06;99891.25;1753099;80;20459;-83
2021/08/29 03:43:23;;;;;;;;;;;;;;;13.38;96.86;99889.91;1779848;80;21129;-82
2021/08/29 03:45:49;;;;;;;;;;;;;;;13.39;96.84;99895.50;1751667;81;20191;-82
2021/08/29 03:48:15;;;;;;;;;;;;;;;13.41;96.67;99885.05;1747007;80;20240;-83
2021/08/29 03:50:41;;;;;;;;;;;;;;;13.46;96.28;99887.16;1778520;80;20151;-82
2021/08/29 03:53:06;;;;;;;;;;;;;;;13.45;96.17;99884.17;1756441;80;20273;-82
2021/08/29 03:55:32;;;;;;;;;;;;;;;13.45;95.93;99889.48;1782376;79;21128;-83
2021/08/29 03:57:58;;;;;;;;;;;;;;;13.49;96.02;99893.42;1748996;80;20204;-81
2021/08/29 04:00:24;;;;;;;;;;;;;;;13.49;95.87;99892.09;1755608;80;20306;-83
2021/08/29 04:02:50;;;;;;;;;;;;;;;13.40;95.77;99886.55;1778469;80;20162;-83
2021/08/29 04:05:16;;;;;;;;;;;;;;;13.42;95.90;99885.38;1753370;81;20195;-83
2021/08/29 04:07:42;;;;;;;;;;;;;;;13.51;95.70;99885.28;1750957;80;21886;-83
2021/08/29 04:10:09;;;;;;;;;;;;;;;13.55;95.29;99884.74;1737633;82;20216;-83
2021/08/29 04:12:35;;;;;;;;;;;;;;;13.60;94.85;99892.97;1747955;80;20230;-86
2021/08/29 04:15:01;;;;;;;;;;;;;;;13.58;94.59;99897.64;1744760;81;20126;-82
2021/08/29 04:17:29;;;;;;;;;;;;;;;13.53;94.68;99898.70;1754141;80;20212;-82
2021/08/29 04:19:54;;;;;;;;;;;;;;;13.55;94.49;99899.33;1713505;82;20504;-84
2021/08/29 04:22:20;;;;;;;;;;;;;;;13.56;94.13;99895.66;1759460;80;20143;-82
2021/08/29 04:24:46;;;;;;;;;;;;;;;13.55;94.14;99903.31;1763622;81;20206;-82
2021/08/29 04:27:12;;;;;;;;;;;;;;;13.48;94.79;99903.70;1756509;80;20211;-83
2021/08/29 04:29:38;;;;;;;;;;;;;;;13.38;94.99;99901.33;1759376;80;20177;-81
2021/08/29 04:32:05;;;;;;;;;;;;;;;13.32;95.21;99913.13;1753426;80;21120;-83
2021/08/29 04:34:31;;;;;;;;;;;;;;;13.29;95.67;99909.81;1775848;80;20124;-83
2021/08/29 04:36:57;;;;;;;;;;;;;;;13.23;95.99;99903.91;1774277;79;20186;-84
2021/08/29 04:39:23;;;;;;;;;;;;;;;13.20;96.43;99908.23;1767290;80;20573;-83
2021/08/29 04:41:48;;;;;;;;;;;;;;;13.13;97.15;99902.02;1772598;80;20147;-82
2021/08/29 04:44:14;;;;;;;;;;;;;;;13.16;97.12;99906.97;1773634;80;21071;-83
2021/08/29 04:46:39;;;;;;;;;;;;;;;13.20;96.96;99906.91;1769954;79;21331;-81
2021/08/29 04:49:05;;;;;;;;;;;;;;;13.16;97.11;99909.63;1770244;80;20179;-81
2021/08/29 04:51:30;;;;;;;;;;;;;;;13.16;97.34;99904.80;1773113;80;20135;-82
2021/08/29 04:53:56;;;;;;;;;;;;;;;13.19;97.37;99900.47;1769488;80;20505;-81
2021/08/29 04:56:22;;;;;;;;;;;;;;;13.23;97.39;99894.63;1779023;79;21118;-84
2021/08/29 04:58:48;;;;;;;;;;;;;;;13.33;97.40;99888.24;1782990;78;20180;-83
2021/08/29 05:01:13;;;;;;;;;;;;;;;13.47;96.87;99887.48;1778340;78;21386;-83
2021/08/29 05:03:39;;;;;;;;;;;;;;;13.51;96.25;99894.06;1758471;80;20159;-83
2021/08/29 05:06:04;;;;;;;;;;;;;;;13.53;96.06;99897.38;1764871;79;20159;-83
2021/08/29 05:08:30;;;;;;;;;;;;;;;13.54;96.03;99900.84;1764641;79;21195;-84
2021/08/29 05:10:57;;;;;;;;;;;;;;;13.63;95.56;99899.75;1758768;80;20134;-83
2021/08/29 05:13:22;;;;;;;;;;;;;;;13.73;95.25;99895.48;1758435;80;20142;-84
2021/08/29 05:15:48;;;;;;;;;;;;;;;13.81;94.65;99904.67;1760688;79;20477;-84
2021/08/29 05:18:16;;;;;;;;;;;;;;;13.75;94.39;99916.03;1762644;80;20120;-83
2021/08/29 05:20:45;;;;;;;;;;;;;;;13.83;94.50;99917.28;1759334;80;21293;-84
2021/08/29 05:23:10;;;;;;;;;;;;;;;13.86;94.31;99918.24;1761200;80;20129;-84
2021/08/29 05:25:36;;;;;;;;;;;;;;;13.96;94.26;99918.77;1756472;80;20225;-84
2021/08/29 05:28:02;;;;;;;;;;;;;;;13.96;93.62;99924.08;1763157;79;20204;-83
2021/08/29 05:30:29;;;;;;;;;;;;;;;13.90;93.56;99922.16;1763064;80;20240;-83
2021/08/29 05:32:55;;;;;;;;;;;;;;;13.87;94.03;99918.55;1741624;80;21085;-83
2021/08/29 05:35:20;;;;;;;;;;;;;;;13.95;94.41;99915.81;1726583;82;20708;-83
2021/08/29 05:37:46;;;;;;;;;;;;;;;13.93;94.46;99910.36;1726729;82;20172;-83
2021/08/29 05:40:12;;;;;;;;;;;;;;;13.92;94.44;99908.22;1728599;82;20618;-82
2021/08/29 05:42:38;;;;;;;;;;;;;;;14.05;94.08;99908.08;1725985;81;20137;-82
2021/08/29 05:45:04;;;;;;;;;;;;;;;14.16;93.84;99914.23;1725813;82;21797;-83
2021/08/29 05:47:29;;;;;;;;;;;;;;;14.17;93.38;99915.89;1726156;81;20164;-84
2021/08/29 05:49:55;;;;;;;;;;;;;;;14.14;93.79;99902.98;1724921;81;20184;-81
2021/08/29 05:52:21;;;;;;;;;;;;;;;14.28;93.69;99912.75;1727315;82;20497;-89
2021/08/29 05:54:46;;;;;;;;;;;;;;;14.25;93.13;99910.47;1725622;82;20128;-83
2021/08/29 05:57:12;;;;;;;;;;;;;;;14.28;92.79;99906.11;1728289;82;21089;-85
2021/08/29 05:59:37;;;;;;;;;;;;;;;14.36;92.52;99904.66;1724886;82;20159;-84
2021/08/29 06:02:03;;;;;;;;;;;;;;;14.35;92.17;99901.67;1727117;81;20199;-83
2021/08/29 06:04:29;;;;;;;;;;;;;;;14.44;91.89;99898.93;1698062;82;20134;-84
2021/08/29 06:06:54;;;;;;;;;;;;;;;14.48;91.58;99897.52;1728123;82;20251;-84
2021/08/29 06:09:22;;;;;;;;;;;;;;;14.53;91.65;99895.14;1727266;82;21019;-84
2021/08/29 06:11:47;;;;;;;;;;;;;;;14.57;91.52;99892.41;1726632;81;20258;-83
2021/08/29 06:14:13;;;;;;;;;;;;;;;14.61;91.44;99890.25;1728514;81;20501;-85
2021/08/29 06:16:39;;;;;;;;;;;;;;;14.71;91.46;99879.63;1725844;82;20492;-86
2021/08/29 06:19:04;;;;;;;;;;;;;;;14.82;91.18;99877.45;1726059;82;20336;-88
2021/08/29 06:21:30;;;;;;;;;;;;;;;14.86;91.08;99873.41;1700149;82;22568;-87
2021/08/29 06:23:56;;;;;;;;;;;;;;;14.94;90.96;99873.27;1724853;82;20228;-86
2021/08/29 06:26:22;;;;;;;;;;;;;;;14.99;90.49;99882.84;1729182;82;20487;-84
2021/08/29 06:28:47;;;;;;;;;;;;;;;15.07;90.12;99885.84;1728133;82;20142;-86
2021/08/29 06:31:13;;;;;;;;;;;;;;;15.15;90.05;99884.88;1725761;81;20557;-85
2021/08/29 06:33:38;;;;;;;;;;;;;;;15.18;90.05;99876.52;1757916;80;22390;-88
2021/08/29 06:36:04;;;;;;;;;;;;;;;15.28;90.13;99882.34;1771710;79;20127;-86
2021/08/29 06:38:29;;;;;;;;;;;;;;;15.33;89.58;99897.72;1768141;80;20209;-85
2021/08/29 06:40:55;;;;;;;;;;;;;;;15.28;89.58;99888.98;1766646;79;20469;-90
2021/08/29 06:43:20;;;;;;;;;;;;;;;15.39;89.62;99879.13;1767105;80;20185;-85
2021/08/29 06:45:46;;;;;;;;;;;;;;;15.41;89.56;99881.11;1761367;79;21160;-87
2021/08/29 06:48:14;;;;;;;;;;;;;;;15.47;89.62;99879.49;1772289;80;20188;-93
2021/08/29 06:50:39;;;;;;;;;;;;;;;15.52;89.66;99878.91;1768777;79;20122;-89
2021/08/29 06:53:05;;;;;;;;;;;;;;;15.62;89.31;99878.06;1772213;80;20192;-87
2021/08/29 06:55:31;;;;;;;;;;;;;;;15.58;89.22;99875.47;1770176;80;20153;-86
2021/08/29 06:57:56;;;;;;;;;;;;;;;15.61;90.07;99876.41;1774589;80;21111;-91
2021/08/29 07:00:22;;;;;;;;;;;;;;;15.71;89.66;99875.55;1774735;80;20157;-90
2021/08/29 07:02:49;;;;;;;;;;;;;;;15.68;89.99;99871.95;1767114;79;20127;-86
2021/08/29 07:05:14;;;;;;;;;;;;;;;15.75;90.09;99867.98;1761258;79;20198;-92
2021/08/29 07:07:40;;;;;;;;;;;;;;;15.76;90.24;99881.10;1767584;79;20418;-94
2021/08/29 07:10:06;;;;;;;;;;;;;;;15.72;90.64;99878.54;1769912;79;21179;-87
2021/08/29 07:12:31;;;;;;;;;;;;;;;15.78;90.75;99870.28;1770049;80;20160;-86
2021/08/29 07:15:01;;;;;;;;;;;;;;;15.87;90.70;99880.27;1772263;80;20245;-87
2021/08/29 07:17:26;;;;;;;;;;;;;;;15.93;90.73;99878.97;1771895;80;20160;-86
2021/08/29 07:19:52;;;;;;;;;;;;;;;16.00;90.25;99882.98;1765876;79;20509;-88
2021/08/29 07:22:19;;;;;;;;;;;;;;;16.09;90.10;99884.98;1775631;80;21884;-90
2021/08/29 07:24:45;;;;;;;;;;;;;;;16.14;90.75;99882.03;1765862;80;20459;-88
2021/08/29 07:27:11;;;;;;;;;;;;;;;16.24;90.22;99880.84;1770809;80;20128;-85
2021/08/29 07:29:36;;;;;;;;;;;;;;;16.30;89.45;99875.52;1766652;80;20148;-90
2021/08/29 07:32:02;;;;;;;;;;;;;;;16.32;89.18;99880.66;1773425;80;20183;-86
2021/08/29 07:34:28;;;;;;;;;;;;;;;16.45;88.91;99890.03;1762475;80;21224;-87
2021/08/29 07:36:53;;;;;;;;;;;;;;;16.58;88.88;99889.72;1766796;79;20192;-90
2021/08/29 07:39:19;;;;;;;;;;;;;;;16.76;88.51;99890.48;1763187;79;20764;-83
2021/08/29 07:41:45;;;;;;;;;;;;;;;16.86;86.97;99878.42;1770824;80;20306;-85
2021/08/29 07:44:11;;;;;;;;;;;;;;;16.98;87.03;99880.47;1764816;80;20186;-85
2021/08/29 07:46:38;;;;;;;;;;;;;;;17.11;87.30;99884.48;1767939;80;21073;-86
2021/08/29 07:49:04;;;;;;;;;;;;;;;17.21;86.82;99878.73;1768548;80;20173;-85
2021/08/29 07:51:29;;;;;;;;;;;;;;;17.25;86.66;99883.16;1772281;80;20279;-84
2021/08/29 07:53:55;;;;;;;;;;;;;;;17.17;87.09;99882.33;1766906;79;20396;-86
2021/08/29 07:56:20;;;;;;;;;;;;;;;17.28;87.01;99879.55;1762771;79;20120;-86
2021/08/29 07:58:46;;;;;;;;;;;;;;;17.37;86.84;99890.81;1762561;79;21180;-85
2021/08/29 08:01:12;;;;;;;;;;;;;;;17.43;85.30;99892.66;1759253;80;20228;-87
2021/08/29 08:03:37;;;;;;;;;;;;;;;17.41;84.54;99889.39;1764959;80;20173;-87
2021/08/29 08:06:06;;;;;;;;;;;;;;;17.37;85.61;99893.48;1762135;80;21001;-83
2021/08/29 08:08:33;;;;;;;;;;;;;;;17.51;86.50;99892.47;1761622;79;20235;-83
2021/08/29 08:10:59;;;;;;;;;;;;;;;17.61;86.43;99894.70;1761015;80;20176;-82
2021/08/29 08:13:28;;;;;;;;;;;;;;;17.61;87.64;99899.23;1761402;79;20200;-83
2021/08/29 08:15:55;;;;;;;;;;;;;;;17.74;87.72;99887.16;1760555;79;20125;-83
2021/08/29 08:18:21;;;;;;;;;;;;;;;17.69;87.65;99888.31;1768500;79;20332;-82
2021/08/29 08:20:46;;;;;;;;;;;;;;;17.67;89.19;99893.05;1765698;79;20158;-84
2021/08/29 08:23:13;;;;;;;;;;;;;;;17.62;89.19;99900.84;1766129;80;21216;-85
2021/08/29 08:25:38;;;;;;;;;;;;;;;17.56;89.51;99899.85;1764468;80;20118;-84
2021/08/29 08:28:04;;;;;;;;;;;;;;;17.68;89.18;99894.67;1756681;80;20173;-83
2021/08/29 08:30:30;;;;;;;;;;;;;;;17.82;88.24;99893.63;1731153;80;20490;-83
2021/08/29 08:32:56;;;;;;;;;;;;;;;17.94;86.86;99905.34;1766194;80;20266;-83
2021/08/29 08:35:23;;;;;;;;;;;;;;;17.90;86.57;99905.97;1763536;79;21185;-84
2021/08/29 08:37:49;;;;;;;;;;;;;;;18.02;86.91;99903.45;1764244;79;20084;-84
2021/08/29 08:40:14;;;;;;;;;;;;;;;18.14;87.14;99899.08;1765734;79;20157;-85
2021/08/29 08:42:40;;;;;;;;;;;;;;;18.24;87.80;99898.12;1761309;80;20125;-82
2021/08/29 08:45:07;;;;;;;;;;;;;;;18.33;87.55;99896.53;1761654;80;21075;-84
2021/08/29 08:47:33;;;;;;;;;;;;;;;18.27;86.95;99900.38;1763615;79;21021;-85
2021/08/29 08:49:59;;;;;;;;;;;;;;;18.35;86.62;99900.64;1761944;79;20275;-85
2021/08/29 08:52:26;;;;;;;;;;;;;;;18.42;85.88;99907.28;1737121;80;20759;-85
2021/08/29 08:54:52;;;;;;;;;;;;;;;18.50;85.34;99908.36;1765832;79;20675;-88
2021/08/29 08:57:18;;;;;;;;;;;;;;;18.52;85.15;99914.83;1765224;79;20181;-95
2021/08/29 08:59:45;;;;;;;;;;;;;;;18.60;84.99;99927.45;1768001;79;21023;-93
2021/08/29 09:02:11;;;;;;;;;;;;;;;18.70;85.11;99922.15;1761688;79;20147;-87
2021/08/29 09:04:40;;;;;;;;;;;;;;;18.82;85.16;99919.09;1772330;80;20318;-83
2021/08/29 09:07:06;;;;;;;;;;;;;;;18.90;84.83;99916.17;1759670;80;20202;-85
2021/08/29 09:09:33;;;;;;;;;;;;;;;18.97;84.60;99911.60;1765982;80;20228;-86
2021/08/29 09:11:59;;;;;;;;;;;;;;;18.88;84.55;99907.55;1764312;80;20543;-89
2021/08/29 09:14:40;;;;;;;;;;;;;;;18.86;84.95;99916.30;1761806;79;20121;-88
2021/08/29 09:17:26;;;;;;;;;;;;;;;18.87;85.08;99912.59;1767372;80;20157;-94
2021/08/29 09:19:54;;;;;;;;;;;;;;;18.92;85.24;99914.09;1757076;79;20212;-87
2021/08/29 09:22:28;;;;;;;;;;;;;;;18.94;84.85;99913.38;1761144;80;20249;-89
2021/08/29 09:24:53;;;;;;;;;;;;;;;18.98;84.33;99915.09;1763537;80;21160;-91
2021/08/29 09:27:23;;;;;;;;;;;;;;;19.03;84.81;99917.11;1763808;79;20174;-92
2021/08/29 09:29:49;;;;;;;;;;;;;;;19.08;84.89;99914.59;1768318;80;20204;-92
2021/08/29 09:32:19;;;;;;;;;;;;;;;19.16;85.12;99907.66;1715581;80;20174;-89
2021/08/29 09:34:56;;;;;;;;;;;;;;;19.26;84.00;99904.47;1765467;79;21018;-92
2021/08/29 09:37:22;;;;;;;;;;;;;;;19.29;83.46;99902.16;1764045;80;21249;-90
2021/08/29 09:39:47;;;;;;;;;;;;;;;19.30;82.98;99902.48;1766512;80;20444;-89
2021/08/29 09:42:13;;;;;;;;;;;;;;;19.32;82.53;99900.39;1762767;79;20128;-90
2021/08/29 09:44:39;;;;;;;;;;;;;;;19.38;81.94;99902.19;1764486;80;20519;-88
2021/08/29 09:47:05;;;;;;;;;;;;;;;19.44;82.05;99902.37;1740189;80;20413;-86
2021/08/29 09:49:34;;;;;;;;;;;;;;;19.47;81.55;99897.91;1765118;80;21158;-86
2021/08/29 09:52:00;;;;;;;;;;;;;;;19.54;80.49;99896.80;1766731;80;20201;-89
2021/08/29 09:54:31;;;;;;;;;;;;;;;19.53;78.96;99894.34;1768187;80;20601;-90
2021/08/29 09:56:59;;;;;;;;;;;;;;;19.51;77.46;99902.61;1765566;80;20579;-93
2021/08/29 09:59:46;;;;;;;;;;;;;;;19.49;78.12;99891.80;1763545;80;20195;-87
2021/08/29 10:02:28;;;;;;;;;;;;;;;19.51;78.55;99892.39;1768326;79;21097;-90
2021/08/29 10:05:15;;;;;;;;;;;;;;;19.39;78.68;99893.66;1735757;80;20271;-90
2021/08/29 10:08:09;;;;;;;;;;;;;;;19.27;78.21;99897.56;1733276;80;33244;-90
2021/08/29 10:10:31;;;;;;;;;;;;;;;19.18;78.51;99892.19;1762926;80;20119;-92
2021/08/29 10:12:57;;;;;;;;;;;;;;;19.12;79.01;99886.37;1762553;80;20174;-91
2021/08/29 10:15:25;;;;;;;;;;;;;;;19.05;78.74;99888.27;1763758;80;21176;-95
2021/08/29 10:17:51;;;;;;;;;;;;;;;18.93;79.27;99898.88;1764123;79;20342;-87
2021/08/29 10:20:20;;;;;;;;;;;;;;;18.93;79.99;99897.01;1765341;79;20268;-93
2021/08/29 10:22:48;;;;;;;;;;;;;;;18.97;80.56;99888.86;1765801;80;20545;-87
2021/08/29 10:25:17;;;;;;;;;;;;;;;18.94;80.99;99887.95;1760010;79;20174;-88
2021/08/29 10:27:45;;;;;;;;;;;;;;;18.99;81.68;99893.47;1762952;80;21118;-88
2021/08/29 10:30:10;;;;;;;;;;;;;;;19.02;82.10;99881.52;1765281;79;20165;-86
2021/08/29 10:32:42;;;;;;;;;;;;;;;19.01;82.51;99887.37;1760716;80;20380;-87
2021/08/29 10:35:10;;;;;;;;;;;;;;;19.07;83.35;99888.36;1735900;80;20180;-89
2021/08/29 10:37:41;;;;;;;;;;;;;;;19.17;83.71;99886.52;1764153;79;20485;-89
2021/08/29 10:40:09;;;;;;;;;;;;;;;19.24;82.96;99892.65;1764222;79;21972;-87
2021/08/29 10:42:38;;;;;;;;;;;;;;;19.27;82.11;99893.55;1766554;80;20203;-88
2021/08/29 10:45:04;;;;;;;;;;;;;;;19.36;81.99;99894.91;1763654;80;20228;-88
2021/08/29 10:47:29;;;;;;;;;;;;;;;19.41;81.65;99896.11;1767292;80;20171;-89
2021/08/29 10:49:55;;;;;;;;;;;;;;;19.47;81.08;99901.92;1767612;80;20271;-88
2021/08/29 10:52:23;;;;;;;;;;;;;;;19.52;80.39;99896.72;1767452;80;20854;-87
2021/08/29 10:54:52;;;;;;;;;;;;;;;19.57;80.21;99887.48;1763345;80;20168;-86
2021/08/29 10:57:26;;;;;;;;;;;;;;;19.61;79.78;99890.03;1767535;79;20176;-89
2021/08/29 11:00:03;;;;;;;;;;;;;;;19.66;79.27;99890.17;1758958;80;20197;-86
2021/08/29 11:02:35;;;;;;;;;;;;;;;19.70;78.29;99883.34;1761351;80;20182;-87
2021/08/29 11:05:02;;;;;;;;;;;;;;;19.78;78.13;99884.09;1762413;80;21197;-86
2021/08/29 11:07:39;;;;;;;;;;;;;;;19.76;77.05;99883.48;1769371;80;20131;-82
2021/08/29 11:10:06;;;;;;;;;;;;;;;19.76;76.73;99886.16;1765724;80;20155;-83
2021/08/29 11:12:32;;;;;;;;;;;;;;;19.69;76.77;99887.58;1765065;79;20181;-83
2021/08/29 11:15:00;;;;;;;;;;;;;;;19.79;77.54;99885.75;1770031;80;20305;-84
2021/08/29 11:17:31;;;;;;;;;;;;;;;19.87;77.58;99890.80;1766598;79;22054;-85
2021/08/29 11:20:06;;;;;;;;;;;;;;;19.91;77.38;99892.00;1765147;79;20276;-84
2021/08/29 11:22:49;;;;;;;;;;;;;;;19.96;77.15;99892.14;1765904;79;20202;-84
2021/08/29 11:25:18;;;;;;;;;;;;;;;20.04;77.27;99889.17;1764381;80;20948;-86
2021/08/29 11:27:54;;;;;;;;;;;;;;;20.13;76.88;99891.53;1761039;79;20461;-87
2021/08/29 11:30:29;;;;;;;;;;;;;;;20.19;76.61;99898.68;1769997;80;21880;-88
2021/08/29 11:33:07;;;;;;;;;;;;;;;20.18;76.62;99897.03;1762268;80;20220;-86
2021/08/29 11:35:50;;;;;;;;;;;;;;;20.24;76.52;99894.28;1768443;79;20716;-87
2021/08/29 11:38:31;;;;;;;;;;;;;;;20.29;77.11;99893.61;1732373;80;20253;-85
2021/08/29 11:41:02;;;;;;;;;;;;;;;20.35;77.45;99895.88;1759632;80;20200;-82
2021/08/29 11:43:31;;;;;;;;;;;;;;;20.31;76.26;99891.51;1768402;80;21178;-88
2021/08/29 11:46:00;;;;;;;;;;;;;;;20.36;76.45;99899.69;1769276;80;20185;-90
2021/08/29 11:48:28;;;;;;;;;;;;;;;20.43;76.65;99908.47;1763345;79;20237;-86
2021/08/29 11:50:53;;;;;;;;;;;;;;;20.43;75.60;99905.78;1764002;79;20519;-86
2021/08/29 11:53:19;;;;;;;;;;;;;;;20.40;75.33;99904.06;1767755;80;20281;-86
2021/08/29 11:55:46;;;;;;;;;;;;;;;20.37;75.36;99902.67;1768601;79;21081;-92
2021/08/29 11:58:23;;;;;;;;;;;;;;;20.36;75.73;99899.69;1766109;79;20172;-89
2021/08/29 12:00:49;;;;;;;;;;;;;;;20.39;75.88;99905.94;1763531;80;20137;-86
2021/08/29 12:03:16;;;;;;;;;;;;;;;20.47;74.43;99899.97;1763664;80;21158;-89
2021/08/29 12:05:58;;;;;;;;;;;;;;;20.56;74.14;99903.97;1758389;80;20169;-85
2021/08/29 12:08:33;;;;;;;;;;;;;;;20.62;73.49;99904.40;1755570;80;21269;-93
2021/08/29 12:10:59;;;;;;;;;;;;;;;20.67;73.02;99903.21;1764088;79;21338;-88
2021/08/29 12:13:30;;;;;;;;;;;;;;;20.70;72.51;99900.07;1762929;80;20645;-90
2021/08/29 12:16:01;;;;;;;;;;;;;;;20.72;72.25;99903.33;1768409;79;20484;-86
2021/08/29 12:18:27;;;;;;;;;;;;;;;20.80;72.79;99901.68;1763957;80;20169;-87
2021/08/29 12:20:53;;;;;;;;;;;;;;;20.90;72.24;99898.96;1758729;80;21063;-88
2021/08/29 12:23:19;;;;;;;;;;;;;;;21.02;71.80;99897.12;1757113;79;20141;-86
2021/08/29 12:25:45;;;;;;;;;;;;;;;21.03;71.15;99896.05;1756086;80;20271;-90
2021/08/29 12:28:13;;;;;;;;;;;;;;;21.07;71.31;99894.55;1760195;80;20187;-91
2021/08/29 12:30:39;;;;;;;;;;;;;;;21.09;71.47;99895.13;1762149;80;20242;-87
2021/08/29 12:33:12;;;;;;;;;;;;;;;21.03;71.41;99893.36;1762713;80;21102;-85
2021/08/29 12:35:41;;;;;;;;;;;;;;;21.01;70.63;99886.61;1763142;79;20209;-86
2021/08/29 12:38:27;;;;;;;;;;;;;;;20.97;69.79;99886.23;1763467;80;20197;-85
2021/08/29 12:40:53;;;;;;;;;;;;;;;20.99;69.62;99888.19;1760139;80;20211;-87
2021/08/29 12:43:19;;;;;;;;;;;;;;;20.95;68.59;99888.34;1763387;79;20218;-86
2021/08/29 12:45:45;;;;;;;;;;;;;;;20.90;67.42;99882.32;1758561;80;20998;-86
2021/08/29 12:48:12;;;;;;;;;;;;;;;20.83;66.46;99883.48;1765562;79;20176;-88